^^
Station Historical Data
Daily Summary for April 7, 2019 Units:  English    Metric   Both
« Previous Day
Next Day »
Daily Weekly Monthly Yearly Custom
  High: Low: Average:
Temperature: 66.5 °F 39.7 °F 53 °F
Dew Point: 42.2 °F 28.4 °F 35.6 °F
Humidity: 97% 25% 59%
Wind Speed: 31.0mph 0.0mph 10.7mph
Wind Gust: 35.0mph - -
Wind- - SW
Pressure: 29.77 in 29.64 in -
Precipitation: 0.02 in    
Historical Graphs
 
 
Tabular Data for April 7, 2019
Time Temperature Dew Point Pressure Wind Wind Speed Wind Gust Humidity Rainfall Rate (Hourly) solar Conditions
00:04 43.3 °F 42.2 °F 29.72 in ENE 3.0 mph 5.0 mph 96% 0.01 in 0.00 W/m2
00:09 43.2 °F 42.1 °F 29.71 in East 3.0 mph 5.0 mph 96% 0.01 in 0.00 W/m2
00:14 43.2 °F 42.1 °F 29.71 in East 3.0 mph 5.0 mph 96% 0.01 in 0.00 W/m2
00:19 43.2 °F 42.1 °F 29.71 in East 3.0 mph 5.0 mph 96% 0.01 in 0.00 W/m2
00:24 43.2 °F 42.1 °F 29.71 in East 3.0 mph 5.0 mph 96% 0.01 in 0.00 W/m2
00:29 43.2 °F 42.1 °F 29.70 in East 3.0 mph 5.0 mph 96% 0.01 in 0.00 W/m2
00:34 43.2 °F 42.1 °F 29.71 in East 3.0 mph 5.0 mph 96% 0.01 in 0.00 W/m2
00:39 43.2 °F 42.1 °F 29.70 in ESE 3.0 mph 5.0 mph 96% 0.01 in 0.00 W/m2
00:44 43.2 °F 42.1 °F 29.70 in East 3.0 mph 6.0 mph 96% 0.01 in 0.00 W/m2
00:49 43.2 °F 42.1 °F 29.70 in ESE 5.0 mph 6.0 mph 96% 0.01 in 0.00 W/m2
00:54 43.2 °F 42.1 °F 29.70 in ESE 3.0 mph 6.0 mph 96% 0.01 in 0.00 W/m2
00:59 43.2 °F 42.1 °F 29.70 in East 5.0 mph 6.0 mph 96% 0.01 in 0.00 W/m2
01:04 43.1 °F 42.0 °F 29.70 in ESE 3.0 mph 6.0 mph 96% 0.00 in 0.00 W/m2
01:09 43.1 °F 42.0 °F 29.70 in East 6.0 mph 6.0 mph 96% 0.00 in 0.00 W/m2
01:14 43.1 °F 42.0 °F 29.70 in ESE 3.0 mph 7.0 mph 96% 0.00 in 0.00 W/m2
01:19 43.1 °F 42.0 °F 29.70 in ESE 3.0 mph 7.0 mph 96% 0.00 in 0.00 W/m2
01:24 43.1 °F 42.0 °F 29.70 in East 3.0 mph 7.0 mph 96% 0.00 in 0.00 W/m2
01:29 43.1 °F 42.0 °F 29.71 in East 2.0 mph 7.0 mph 96% 0.00 in 0.00 W/m2
01:34 43.1 °F 42.0 °F 29.70 in East 3.0 mph 6.0 mph 96% 0.00 in 0.00 W/m2
01:39 43.0 °F 42.2 °F 29.71 in East 2.0 mph 6.0 mph 97% 0.00 in 0.00 W/m2
01:44 43.0 °F 42.2 °F 29.71 in East 3.0 mph 6.0 mph 97% 0.00 in 0.00 W/m2
01:49 43.0 °F 42.2 °F 29.71 in ESE 3.0 mph 5.0 mph 97% 0.00 in 0.00 W/m2
01:54 42.9 °F 42.1 °F 29.71 in ESE 1.0 mph 5.0 mph 97% 0.00 in 0.00 W/m2
01:59 42.9 °F 42.1 °F 29.71 in ESE 1.0 mph 3.0 mph 97% 0.00 in 0.00 W/m2
02:04 42.9 °F 42.1 °F 29.71 in ESE 3.0 mph 3.0 mph 97% 0.00 in 0.00 W/m2
02:09 42.9 °F 42.1 °F 29.71 in East 5.0 mph 5.0 mph 97% 0.00 in 0.00 W/m2
02:14 42.9 °F 42.1 °F 29.71 in East 2.0 mph 5.0 mph 97% 0.00 in 0.00 W/m2
02:19 42.9 °F 42.1 °F 29.71 in East 2.0 mph 5.0 mph 97% 0.00 in 0.00 W/m2
02:24 42.7 °F 41.9 °F 29.71 in East 3.0 mph 3.0 mph 97% 0.00 in 0.00 W/m2
02:29 42.6 °F 41.5 °F 29.71 in Calm   3.0 mph 96% 0.00 in 0.00 W/m2
02:34 42.6 °F 41.5 °F 29.70 in Calm   3.0 mph 96% 0.00 in 0.00 W/m2
02:39 42.6 °F 41.5 °F 29.71 in West 3.0 mph 5.0 mph 96% 0.00 in 0.00 W/m2
02:44 42.6 °F 41.5 °F 29.71 in West 3.0 mph 5.0 mph 96% 0.00 in 0.00 W/m2
02:49 42.6 °F 41.8 °F 29.71 in SW 3.0 mph 4.0 mph 97% 0.00 in 0.00 W/m2
02:54 42.6 °F 41.8 °F 29.71 in SW 1.0 mph 4.0 mph 97% 0.00 in 0.00 W/m2
02:59 42.6 °F 41.8 °F 29.71 in SW 3.0 mph 4.0 mph 97% 0.00 in 0.00 W/m2
03:04 42.7 °F 41.9 °F 29.71 in WSW 5.0 mph 6.0 mph 97% 0.00 in 0.00 W/m2
03:09 42.5 °F 41.7 °F 29.71 in WSW 4.0 mph 6.0 mph 97% 0.00 in 0.00 W/m2
03:14 42.5 °F 41.7 °F 29.71 in West 6.0 mph 7.0 mph 97% 0.00 in 0.00 W/m2
03:19 42.6 °F 41.8 °F 29.71 in West 7.0 mph 7.0 mph 97% 0.00 in 0.00 W/m2
03:24 42.6 °F 41.8 °F 29.71 in West 7.0 mph 9.0 mph 97% 0.00 in 0.00 W/m2
03:29 42.6 °F 41.8 °F 29.70 in WNW 7.0 mph 10.0 mph 97% 0.00 in 0.00 W/m2
03:34 42.5 °F 41.7 °F 29.70 in West 5.0 mph 10.0 mph 97% 0.00 in 0.00 W/m2
03:39 42.3 °F 41.5 °F 29.70 in West 7.0 mph 9.0 mph 97% 0.00 in 0.00 W/m2
03:44 42.2 °F 41.4 °F 29.70 in West 6.0 mph 9.0 mph 97% 0.00 in 0.00 W/m2
03:49 42.0 °F 41.2 °F 29.70 in West 5.0 mph 9.0 mph 97% 0.00 in 0.00 W/m2
03:54 41.9 °F 41.1 °F 29.71 in West 8.0 mph 11.0 mph 97% 0.00 in 0.00 W/m2
03:59 41.8 °F 41.0 °F 29.72 in West 11.0 mph 13.0 mph 97% 0.00 in 0.00 W/m2
04:04 41.9 °F 41.1 °F 29.72 in WSW 9.0 mph 13.0 mph 97% 0.00 in 0.00 W/m2
04:09 41.8 °F 41.0 °F 29.73 in WSW 9.0 mph 13.0 mph 97% 0.00 in 0.00 W/m2
04:14 41.6 °F 40.8 °F 29.74 in West 14.0 mph 19.0 mph 97% 0.00 in 0.00 W/m2
04:19 41.6 °F 40.8 °F 29.74 in WSW 13.0 mph 21.0 mph 97% 0.00 in 0.00 W/m2
04:24 41.6 °F 40.8 °F 29.75 in WNW 16.0 mph 21.0 mph 97% 0.00 in 0.00 W/m2
04:29 41.5 °F 40.7 °F 29.75 in WSW 22.0 mph 22.0 mph 97% 0.01 in 0.00 W/m2
04:34 41.4 °F 40.6 °F 29.75 in West 14.0 mph 22.0 mph 97% 0.01 in 0.00 W/m2
04:39 41.1 °F 40.3 °F 29.75 in West 10.0 mph 21.0 mph 97% 0.01 in 0.00 W/m2
04:44 40.6 °F 39.8 °F 29.74 in West 10.0 mph 21.0 mph 97% 0.01 in 0.00 W/m2
04:49 40.2 °F 39.4 °F 29.74 in West 8.0 mph 16.0 mph 97% 0.01 in 0.00 W/m2
04:54 40.0 °F 39.2 °F 29.75 in West 7.0 mph 12.0 mph 97% 0.01 in 0.00 W/m2
04:59 39.9 °F 39.1 °F 29.75 in West 7.0 mph 11.0 mph 97% 0.01 in 0.00 W/m2
05:04 39.8 °F 39.0 °F 29.75 in West 6.0 mph 9.0 mph 97% 0.01 in 0.00 W/m2
05:09 39.8 °F 39.0 °F 29.75 in WSW 7.0 mph 9.0 mph 97% 0.01 in 0.00 W/m2
05:14 39.7 °F 38.9 °F 29.75 in West 7.0 mph 9.0 mph 97% 0.01 in 0.00 W/m2
05:19 39.9 °F 39.1 °F 29.75 in West 7.0 mph 8.0 mph 97% 0.01 in 0.00 W/m2
05:24 40.2 °F 39.4 °F 29.75 in WNW 3.0 mph 8.0 mph 97% 0.01 in 0.00 W/m2
05:29 40.3 °F 39.5 °F 29.75 in West 3.0 mph 7.0 mph 97% 0.00 in 0.00 W/m2
05:34 40.4 °F 39.6 °F 29.75 in West 4.0 mph 7.0 mph 97% 0.00 in 0.00 W/m2
05:39 40.6 °F 39.8 °F 29.75 in West 4.0 mph 7.0 mph 97% 0.00 in 0.00 W/m2
05:44 40.7 °F 39.9 °F 29.75 in WSW 5.0 mph 7.0 mph 97% 0.00 in 0.00 W/m2
05:49 40.9 °F 40.1 °F 29.75 in West 7.0 mph 9.0 mph 97% 0.00 in 0.00 W/m2
05:54 41.1 °F 40.3 °F 29.75 in West 7.0 mph 9.0 mph 97% 0.00 in 0.00 W/m2
05:59 41.5 °F 40.7 °F 29.74 in WNW 7.0 mph 11.0 mph 97% 0.00 in 0.00 W/m2
06:04 41.8 °F 41.0 °F 29.74 in West 7.0 mph 11.0 mph 97% 0.00 in 0.00 W/m2
06:09 41.9 °F 41.1 °F 29.74 in WNW 5.0 mph 10.0 mph 97% 0.00 in 0.00 W/m2
06:14 42.0 °F 41.2 °F 29.74 in WNW 6.0 mph 10.0 mph 97% 0.00 in 0.00 W/m2
06:19 42.0 °F 41.2 °F 29.74 in WNW 6.0 mph 10.0 mph 97% 0.00 in 0.00 W/m2
06:24 41.7 °F 40.9 °F 29.73 in WNW 6.0 mph 10.0 mph 97% 0.00 in 0.00 W/m2
06:29 41.5 °F 40.7 °F 29.73 in West 4.0 mph 7.0 mph 97% 0.00 in 0.00 W/m2
06:34 41.6 °F 40.8 °F 29.73 in NW 6.0 mph 8.0 mph 97% 0.00 in 0.00 W/m2
06:39 42.0 °F 41.2 °F 29.73 in West 5.0 mph 8.0 mph 97% 0.00 in 0.00 W/m2
06:44 42.1 °F 41.3 °F 29.74 in West 4.0 mph 7.0 mph 97% 0.00 in 0.00 W/m2
06:49 42.2 °F 41.4 °F 29.74 in WNW 6.0 mph 7.0 mph 97% 0.00 in 0.00 W/m2
06:54 42.5 °F 41.7 °F 29.74 in NW 5.0 mph 7.0 mph 97% 0.00 in 0.00 W/m2
06:59 42.3 °F 41.5 °F 29.75 in NW 5.0 mph 7.0 mph 97% 0.00 in 0.00 W/m2
07:04 42.3 °F 41.5 °F 29.75 in NW 5.0 mph 7.0 mph 97% 0.00 in 0.00 W/m2
07:09 42.4 °F 41.3 °F 29.75 in WNW 7.0 mph 7.0 mph 96% 0.00 in 0.00 W/m2
07:14 42.6 °F 41.5 °F 29.75 in West 5.0 mph 8.0 mph 96% 0.00 in 0.00 W/m2
07:19 42.6 °F 41.3 °F 29.74 in West 4.0 mph 8.0 mph 95% 0.00 in 5.00 W/m2
07:24 42.7 °F 41.4 °F 29.75 in West 5.0 mph 7.0 mph 95% 0.00 in 7.00 W/m2
07:29 42.6 °F 41.3 °F 29.74 in West 3.0 mph 7.0 mph 95% 0.00 in 11.00 W/m2
07:34 42.5 °F 40.9 °F 29.75 in West 5.0 mph 6.0 mph 94% 0.00 in 14.00 W/m2
07:39 42.5 °F 40.9 °F 29.75 in West 5.0 mph 7.0 mph 94% 0.00 in 19.00 W/m2
07:44 42.6 °F 41.0 °F 29.75 in West 7.0 mph 7.0 mph 94% 0.00 in 23.00 W/m2
07:49 42.5 °F 40.6 °F 29.75 in West 5.0 mph 9.0 mph 93% 0.00 in 23.00 W/m2
07:54 42.9 °F 41.0 °F 29.75 in West 8.0 mph 10.0 mph 93% 0.00 in 26.00 W/m2
07:59 43.4 °F 41.2 °F 29.75 in West 4.0 mph 10.0 mph 92% 0.00 in 32.00 W/m2
08:04 43.7 °F 41.0 °F 29.76 in West 8.0 mph 9.0 mph 90% 0.00 in 37.00 W/m2
08:09 44.0 °F 41.0 °F 29.76 in West 9.0 mph 10.0 mph 89% 0.00 in 44.00 W/m2
08:14 44.2 °F 40.9 °F 29.76 in WSW 9.0 mph 11.0 mph 88% 0.00 in 60.00 W/m2
08:19 44.4 °F 40.8 °F 29.76 in West 8.0 mph 12.0 mph 87% 0.00 in 79.00 W/m2
08:24 45.0 °F 40.8 °F 29.77 in West 9.0 mph 12.0 mph 85% 0.00 in 83.00 W/m2
08:29 45.7 °F 40.8 °F 29.77 in WNW 9.0 mph 14.0 mph 83% 0.00 in 84.00 W/m2
08:34 46.9 °F 40.4 °F 29.77 in WNW 10.0 mph 15.0 mph 78% 0.00 in 148.00 W/m2
08:39 47.9 °F 40.4 °F 29.77 in WNW 13.0 mph 16.0 mph 75% 0.00 in 163.00 W/m2
08:44 48.5 °F 39.9 °F 29.77 in West 10.0 mph 17.0 mph 72% 0.00 in 183.00 W/m2
08:49 48.6 °F 39.3 °F 29.77 in West 13.0 mph 17.0 mph 70% 0.00 in 69.00 W/m2
08:54 48.4 °F 39.8 °F 29.77 in West 9.0 mph 16.0 mph 72% 0.00 in 243.00 W/m2
08:59 48.8 °F 40.5 °F 29.77 in West 10.0 mph 15.0 mph 73% 0.00 in 271.00 W/m2
09:04 49.2 °F 40.6 °F 29.77 in WNW 10.0 mph 15.0 mph 72% 0.00 in 287.00 W/m2
09:09 49.5 °F 40.1 °F 29.77 in West 14.0 mph 15.0 mph 70% 0.00 in 297.00 W/m2
09:14 49.7 °F 39.6 °F 29.76 in WNW 10.0 mph 17.0 mph 68% 0.00 in 315.00 W/m2
09:19 49.7 °F 39.6 °F 29.76 in WNW 14.0 mph 17.0 mph 68% 0.00 in 332.00 W/m2
09:24 49.8 °F 39.7 °F 29.76 in West 12.0 mph 17.0 mph 68% 0.00 in 348.00 W/m2
09:29 50.1 °F 39.6 °F 29.76 in WNW 15.0 mph 17.0 mph 67% 0.00 in 364.00 W/m2
09:34 50.6 °F 40.0 °F 29.76 in West 15.0 mph 21.0 mph 67% 0.00 in 381.00 W/m2
09:39 51.2 °F 38.6 °F 29.76 in WNW 16.0 mph 21.0 mph 62% 0.00 in 399.00 W/m2
09:44 51.5 °F 38.1 °F 29.76 in WNW 8.0 mph 22.0 mph 60% 0.00 in 413.00 W/m2
09:49 51.9 °F 38.0 °F 29.76 in WNW 18.0 mph 22.0 mph 59% 0.00 in 424.00 W/m2
09:54 52.1 °F 37.8 °F 29.76 in WNW 23.0 mph 25.0 mph 58% 0.00 in 439.00 W/m2
09:59 52.2 °F 37.4 °F 29.76 in WNW 17.0 mph 25.0 mph 57% 0.00 in 454.00 W/m2
10:04 52.7 °F 37.4 °F 29.75 in WNW 12.0 mph 24.0 mph 56% 0.00 in 468.00 W/m2
10:09 53.2 °F 37.0 °F 29.75 in WNW 16.0 mph 21.0 mph 54% 0.00 in 483.00 W/m2
10:14 53.4 °F 36.2 °F 29.76 in WNW 17.0 mph 27.0 mph 52% 0.00 in 497.00 W/m2
10:19 53.7 °F 36.5 °F 29.75 in WNW 13.0 mph 27.0 mph 52% 0.00 in 508.00 W/m2
10:24 54.0 °F 36.3 °F 29.75 in WNW 16.0 mph 24.0 mph 51% 0.00 in 522.00 W/m2
10:29 54.5 °F 36.7 °F 29.75 in WNW 16.0 mph 24.0 mph 51% 0.00 in 524.00 W/m2
10:34 55.0 °F 36.2 °F 29.75 in WNW 18.0 mph 23.0 mph 49% 0.00 in 515.00 W/m2
10:39 55.3 °F 35.4 °F 29.75 in WNW 15.0 mph 23.0 mph 47% 0.00 in 503.00 W/m2
10:44 55.7 °F 35.8 °F 29.75 in NW 10.0 mph 27.0 mph 47% 0.00 in 489.00 W/m2
10:49 55.9 °F 35.4 °F 29.75 in NW 17.0 mph 27.0 mph 46% 0.00 in 476.00 W/m2
10:54 55.9 °F 34.8 °F 29.75 in West 15.0 mph 23.0 mph 45% 0.00 in 475.00 W/m2
10:59 56.7 °F 35.0 °F 29.75 in WNW 19.0 mph 23.0 mph 44% 0.00 in 482.00 W/m2
11:04 56.9 °F 35.2 °F 29.74 in West 22.0 mph 22.0 mph 44% 0.00 in 503.00 W/m2
11:09 56.8 °F 33.3 °F 29.74 in West 17.0 mph 24.0 mph 41% 0.00 in 519.00 W/m2
11:14 57.3 °F 34.4 °F 29.75 in WNW 18.0 mph 24.0 mph 42% 0.00 in 503.00 W/m2
11:19 57.6 °F 34.1 °F 29.75 in WNW 13.0 mph 23.0 mph 41% 0.00 in 490.00 W/m2
11:24 57.6 °F 34.1 °F 29.74 in WNW 14.0 mph 24.0 mph 41% 0.00 in 517.00 W/m2
11:29 58.0 °F 34.4 °F 29.74 in WNW 17.0 mph 24.0 mph 41% 0.00 in 580.00 W/m2
11:34 58.0 °F 33.8 °F 29.74 in West 18.0 mph 24.0 mph 40% 0.00 in 659.00 W/m2
11:39 58.3 °F 34.1 °F 29.74 in WNW 22.0 mph 25.0 mph 40% 0.00 in 694.00 W/m2
11:44 58.1 °F 33.9 °F 29.74 in WNW 14.0 mph 25.0 mph 40% 0.00 in 703.00 W/m2
11:49 58.2 °F 34.6 °F 29.74 in West 16.0 mph 22.0 mph 41% 0.00 in 710.00 W/m2
11:54 58.4 °F 34.2 °F 29.74 in WNW 19.0 mph 21.0 mph 40% 0.00 in 717.00 W/m2
11:59 58.9 °F 34.0 °F 29.74 in WNW 13.0 mph 25.0 mph 39% 0.00 in 724.00 W/m2
12:04 59.1 °F 34.1 °F 29.74 in West 17.0 mph 25.0 mph 39% 0.00 in 735.00 W/m2
12:09 59.5 °F 33.9 °F 29.73 in West 22.0 mph 25.0 mph 38% 0.00 in 740.00 W/m2
12:14 59.3 °F 33.7 °F 29.74 in WNW 16.0 mph 23.0 mph 38% 0.00 in 751.00 W/m2
12:19 59.6 °F 33.9 °F 29.74 in West 21.0 mph 25.0 mph 38% 0.00 in 756.00 W/m2
12:24 59.8 °F 33.5 °F 29.74 in WNW 18.0 mph 26.0 mph 37% 0.00 in 761.00 W/m2
12:29 59.9 °F 32.9 °F 29.74 in West 19.0 mph 27.0 mph 36% 0.00 in 768.00 W/m2
12:34 60.4 °F 31.1 °F 29.74 in WNW 15.0 mph 27.0 mph 33% 0.00 in 775.00 W/m2
12:39 60.3 °F 32.5 °F 29.73 in West 18.0 mph 30.0 mph 35% 0.00 in 782.00 W/m2
12:44 60.7 °F 33.6 °F 29.73 in WSW 25.0 mph 30.0 mph 36% 0.00 in 786.00 W/m2
12:49 60.3 °F 33.2 °F 29.73 in West 18.0 mph 29.0 mph 36% 0.00 in 784.00 W/m2
12:54 60.2 °F 31.7 °F 29.73 in WSW 21.0 mph 34.0 mph 34% 0.00 in 775.00 W/m2
12:59 60.5 °F 32.0 °F 29.73 in WSW 22.0 mph 35.0 mph 34% 0.00 in 809.00 W/m2
13:04 60.7 °F 32.9 °F 29.73 in West 28.0 mph 35.0 mph 35% 0.00 in 812.00 W/m2
13:09 60.9 °F 31.6 °F 29.73 in West 20.0 mph 30.0 mph 33% 0.00 in 782.00 W/m2
13:14 61.0 °F 31.7 °F 29.73 in West 23.0 mph 30.0 mph 33% 0.00 in 828.00 W/m2
13:19 61.0 °F 31.7 °F 29.73 in West 19.0 mph 30.0 mph 33% 0.00 in 846.00 W/m2
13:24 61.2 °F 32.6 °F 29.72 in West 19.0 mph 29.0 mph 34% 0.00 in 779.00 W/m2
13:29 61.5 °F 32.1 °F 29.72 in West 17.0 mph 29.0 mph 33% 0.00 in 877.00 W/m2
13:34 62.3 °F 32.0 °F 29.72 in West 26.0 mph 29.0 mph 32% 0.00 in 752.00 W/m2
13:39 61.7 °F 29.9 °F 29.72 in West 18.0 mph 30.0 mph 30% 0.00 in 782.00 W/m2
13:44 61.9 °F 30.1 °F 29.72 in WNW 14.0 mph 34.0 mph 30% 0.00 in 824.00 W/m2
13:49 62.1 °F 29.4 °F 29.72 in WNW 18.0 mph 34.0 mph 29% 0.00 in 826.00 W/m2
13:54 62.3 °F 29.6 °F 29.72 in WSW 16.0 mph 30.0 mph 29% 0.00 in 826.00 W/m2
13:59 62.3 °F 30.4 °F 29.72 in West 16.0 mph 30.0 mph 30% 0.00 in 826.00 W/m2
14:04 63.1 °F 29.4 °F 29.72 in West 10.0 mph 27.0 mph 28% 0.00 in 831.00 W/m2
14:09 62.9 °F 28.4 °F 29.72 in WNW 19.0 mph 34.0 mph 27% 0.00 in 844.00 W/m2
14:14 62.5 °F 28.9 °F 29.71 in WNW 29.0 mph 34.0 mph 28% 0.00 in 780.00 W/m2
14:19 62.8 °F 30.0 °F 29.71 in West 23.0 mph 34.0 mph 29% 0.00 in 796.00 W/m2
14:24 62.9 °F 29.3 °F 29.71 in West 23.0 mph 34.0 mph 28% 0.00 in 735.00 W/m2
14:29 62.9 °F 28.4 °F 29.71 in West 23.0 mph 34.0 mph 27% 0.00 in 810.00 W/m2
14:34 63.4 °F 29.7 °F 29.71 in West 28.0 mph 30.0 mph 28% 0.00 in 814.00 W/m2
14:39 63.0 °F 28.5 °F 29.71 in West 15.0 mph 30.0 mph 27% 0.00 in 698.00 W/m2
14:44 63.4 °F 29.7 °F 29.71 in WNW 23.0 mph 30.0 mph 28% 0.00 in 728.00 W/m2
14:49 63.2 °F 28.6 °F 29.71 in WSW 23.0 mph 28.0 mph 27% 0.00 in 698.00 W/m2
14:54 63.1 °F 29.4 °F 29.70 in WSW 19.0 mph 27.0 mph 28% 0.00 in 682.00 W/m2
14:59 63.2 °F 29.5 °F 29.71 in West 26.0 mph 29.0 mph 28% 0.00 in 768.00 W/m2
15:04 63.8 °F 30.0 °F 29.71 in WSW 23.0 mph 30.0 mph 28% 0.00 in 793.00 W/m2
15:09 63.9 °F 29.2 °F 29.71 in WSW 20.0 mph 30.0 mph 27% 0.00 in 784.00 W/m2
15:14 64.6 °F 30.7 °F 29.71 in West 19.0 mph 28.0 mph 28% 0.00 in 788.00 W/m2
15:19 64.5 °F 28.8 °F 29.70 in NW 18.0 mph 27.0 mph 26% 0.00 in 791.00 W/m2
15:24 64.5 °F 29.7 °F 29.70 in West 17.0 mph 27.0 mph 27% 0.00 in 765.00 W/m2
15:29 64.8 °F 29.1 °F 29.70 in West 21.0 mph 28.0 mph 26% 0.00 in 775.00 W/m2
15:34 65.0 °F 30.2 °F 29.70 in WSW 20.0 mph 28.0 mph 27% 0.00 in 701.00 W/m2
15:39 64.9 °F 31.0 °F 29.70 in West 14.0 mph 26.0 mph 28% 0.00 in 775.00 W/m2
15:44 64.9 °F 30.1 °F 29.70 in West 13.0 mph 26.0 mph 27% 0.00 in 751.00 W/m2
15:49 63.9 °F 29.2 °F 29.70 in WNW 17.0 mph 29.0 mph 27% 0.00 in 666.00 W/m2
15:54 64.3 °F 29.6 °F 29.70 in West 9.0 mph 29.0 mph 27% 0.00 in 703.00 W/m2
15:59 64.6 °F 29.8 °F 29.70 in WNW 15.0 mph 25.0 mph 27% 0.00 in 601.00 W/m2
16:04 65.0 °F 30.2 °F 29.69 in WNW 11.0 mph 23.0 mph 27% 0.00 in 693.00 W/m2
16:09 64.8 °F 30.9 °F 29.69 in West 15.0 mph 26.0 mph 28% 0.00 in 691.00 W/m2
16:14 64.9 °F 29.2 °F 29.68 in WNW 22.0 mph 26.0 mph 26% 0.00 in 633.00 W/m2
16:19 64.9 °F 30.1 °F 29.69 in West 25.0 mph 26.0 mph 27% 0.00 in 322.00 W/m2
16:24 65.2 °F 30.3 °F 29.68 in WSW 31.0 mph 31.0 mph 27% 0.00 in 649.00 W/m2
16:29 66.5 °F 30.5 °F 29.68 in West 23.0 mph 31.0 mph 26% 0.00 in 652.00 W/m2
16:34 66.0 °F 30.1 °F 29.68 in WNW 17.0 mph 31.0 mph 26% 0.00 in 642.00 W/m2
16:39 65.7 °F 29.8 °F 29.68 in NNW 14.0 mph 29.0 mph 26% 0.00 in 589.00 W/m2
16:44 65.3 °F 29.5 °F 29.68 in West 21.0 mph 28.0 mph 26% 0.00 in 364.00 W/m2
16:49 65.8 °F 29.9 °F 29.68 in West 18.0 mph 29.0 mph 26% 0.00 in 670.00 W/m2
16:54 65.8 °F 29.0 °F 29.68 in NW 14.0 mph 29.0 mph 25% 0.00 in 610.00 W/m2
16:59 65.9 °F 30.0 °F 29.68 in West 22.0 mph 28.0 mph 26% 0.00 in 564.00 W/m2
17:04 66.2 °F 30.3 °F 29.68 in WNW 19.0 mph 24.0 mph 26% 0.00 in 552.00 W/m2
17:09 66.0 °F 30.1 °F 29.68 in WNW 19.0 mph 29.0 mph 26% 0.00 in 538.00 W/m2
17:14 66.4 °F 30.4 °F 29.68 in WNW 20.0 mph 29.0 mph 26% 0.00 in 527.00 W/m2
17:19 66.2 °F 30.3 °F 29.68 in West 23.0 mph 29.0 mph 26% 0.00 in 506.00 W/m2
17:24 65.9 °F 30.9 °F 29.68 in WNW 24.0 mph 29.0 mph 27% 0.00 in 519.00 W/m2
17:29 66.0 °F 30.1 °F 29.68 in WNW 17.0 mph 29.0 mph 26% 0.00 in 434.00 W/m2
17:34 66.2 °F 30.3 °F 29.68 in West 23.0 mph 26.0 mph 26% 0.00 in 415.00 W/m2
17:39 65.9 °F 30.0 °F 29.68 in West 17.0 mph 27.0 mph 26% 0.00 in 381.00 W/m2
17:44 65.8 °F 29.0 °F 29.68 in West 22.0 mph 27.0 mph 25% 0.00 in 520.00 W/m2
17:49 65.6 °F 29.8 °F 29.68 in West 17.0 mph 25.0 mph 26% 0.00 in 432.00 W/m2
17:54 65.2 °F 29.4 °F 29.68 in WNW 19.0 mph 23.0 mph 26% 0.00 in 165.00 W/m2
17:59 64.7 °F 29.9 °F 29.68 in WNW 17.0 mph 25.0 mph 27% 0.00 in 359.00 W/m2
18:04 65.2 °F 30.3 °F 29.68 in West 15.0 mph 25.0 mph 27% 0.00 in 197.00 W/m2
18:09 64.6 °F 30.7 °F 29.68 in WNW 17.0 mph 22.0 mph 28% 0.00 in 160.00 W/m2
18:14 64.1 °F 30.3 °F 29.68 in West 12.0 mph 21.0 mph 28% 0.00 in 141.00 W/m2
18:19 64.1 °F 31.2 °F 29.68 in WNW 11.0 mph 18.0 mph 29% 0.00 in 258.00 W/m2
18:24 64.3 °F 30.5 °F 29.68 in West 16.0 mph 17.0 mph 28% 0.00 in 176.00 W/m2
18:29 63.8 °F 29.1 °F 29.68 in WNW 9.0 mph 17.0 mph 27% 0.00 in 86.00 W/m2
18:34 63.4 °F 30.6 °F 29.68 in NW 17.0 mph 17.0 mph 29% 0.00 in 148.00 W/m2
18:39 64.3 °F 32.2 °F 29.68 in West 10.0 mph 17.0 mph 30% 0.00 in 355.00 W/m2
18:44 64.6 °F 31.6 °F 29.68 in WSW 15.0 mph 17.0 mph 29% 0.00 in 116.00 W/m2
18:49 64.0 °F 31.1 °F 29.68 in WSW 13.0 mph 19.0 mph 29% 0.00 in 123.00 W/m2
18:54 63.9 °F 31.8 °F 29.68 in West 13.0 mph 19.0 mph 30% 0.00 in 123.00 W/m2
18:59 63.8 °F 31.7 °F 29.68 in West 15.0 mph 17.0 mph 30% 0.00 in 158.00 W/m2
19:04 63.7 °F 31.7 °F 29.68 in West 11.0 mph 17.0 mph 30% 0.00 in 93.00 W/m2
19:09 63.4 °F 30.6 °F 29.68 in WSW 14.0 mph 18.0 mph 29% 0.00 in 65.00 W/m2
19:14 63.1 °F 31.1 °F 29.68 in West 11.0 mph 18.0 mph 30% 0.00 in 56.00 W/m2
19:19 62.7 °F 31.6 °F 29.68 in WSW 9.0 mph 17.0 mph 31% 0.00 in 40.00 W/m2
19:24 62.2 °F 32.0 °F 29.68 in West 7.0 mph 13.0 mph 32% 0.00 in 37.00 W/m2
19:29 61.7 °F 32.3 °F 29.68 in West 6.0 mph 11.0 mph 33% 0.00 in 32.00 W/m2
19:34 61.4 °F 32.0 °F 29.68 in WSW 4.0 mph 10.0 mph 33% 0.00 in 33.00 W/m2
19:39 61.0 °F 32.4 °F 29.68 in WSW 4.0 mph 8.0 mph 34% 0.00 in 25.00 W/m2
19:44 60.6 °F 32.1 °F 29.67 in WSW 3.0 mph 6.0 mph 34% 0.00 in 18.00 W/m2
19:49 60.3 °F 32.5 °F 29.67 in WSW 2.0 mph 6.0 mph 35% 0.00 in 16.00 W/m2
19:54 60.0 °F 32.2 °F 29.67 in SW 2.0 mph 4.0 mph 35% 0.00 in 30.00 W/m2
19:59 59.8 °F 32.8 °F 29.68 in SW 1.0 mph 3.0 mph 36% 0.00 in 9.00 W/m2
20:04 59.5 °F 33.9 °F 29.67 in NNE 4.0 mph 6.0 mph 38% 0.00 in 7.00 W/m2
20:09 58.8 °F 33.2 °F 29.67 in North 1.0 mph 6.0 mph 38% 0.00 in 7.00 W/m2
20:14 58.4 °F 33.5 °F 29.67 in NNE 4.0 mph 5.0 mph 39% 0.00 in 0.00 W/m2
20:19 58.1 °F 32.6 °F 29.67 in NE 5.0 mph 5.0 mph 38% 0.00 in 0.00 W/m2
20:24 57.9 °F 31.8 °F 29.66 in NNE 5.0 mph 8.0 mph 37% 0.00 in 0.00 W/m2
20:29 57.8 °F 31.7 °F 29.66 in NE 5.0 mph 8.0 mph 37% 0.00 in 0.00 W/m2
20:34 57.5 °F 32.1 °F 29.67 in ENE 3.0 mph 8.0 mph 38% 0.00 in 0.00 W/m2
20:39 57.0 °F 31.0 °F 29.66 in ENE 5.0 mph 7.0 mph 37% 0.00 in 0.00 W/m2
20:44 57.0 °F 31.0 °F 29.66 in ENE 5.0 mph 5.0 mph 37% 0.00 in 0.00 W/m2
20:49 56.9 °F 30.9 °F 29.66 in ENE 5.0 mph 7.0 mph 37% 0.00 in 0.00 W/m2
20:54 56.8 °F 30.8 °F 29.66 in ENE 4.0 mph 7.0 mph 37% 0.00 in 0.00 W/m2
20:59 56.6 °F 30.6 °F 29.66 in ENE 7.0 mph 8.0 mph 37% 0.00 in 0.00 W/m2
21:04 56.4 °F 31.1 °F 29.66 in East 4.0 mph 8.0 mph 38% 0.00 in 0.00 W/m2
21:09 55.9 °F 31.9 °F 29.66 in East 7.0 mph 7.0 mph 40% 0.00 in 0.00 W/m2
21:14 55.3 °F 32.0 °F 29.67 in East 6.0 mph 8.0 mph 41% 0.00 in 0.00 W/m2
21:19 54.8 °F 31.5 °F 29.67 in East 6.0 mph 8.0 mph 41% 0.00 in 0.00 W/m2
21:24 54.6 °F 31.3 °F 29.66 in ENE 5.0 mph 8.0 mph 41% 0.00 in 0.00 W/m2
21:29 54.4 °F 31.8 °F 29.66 in East 7.0 mph 8.0 mph 42% 0.00 in 0.00 W/m2
21:34 54.2 °F 32.2 °F 29.67 in East 7.0 mph 9.0 mph 43% 0.00 in 0.00 W/m2
21:39 53.9 °F 32.5 °F 29.67 in East 7.0 mph 9.0 mph 44% 0.00 in 0.00 W/m2
21:44 53.5 °F 33.2 °F 29.67 in SE 4.0 mph 8.0 mph 46% 0.00 in 0.00 W/m2
21:49 53.0 °F 33.3 °F 29.67 in SE 3.0 mph 7.0 mph 47% 0.00 in 0.00 W/m2
21:54 52.7 °F 33.0 °F 29.67 in SE 4.0 mph 5.0 mph 47% 0.00 in 0.00 W/m2
21:59 52.7 °F 33.0 °F 29.67 in ESE 4.0 mph 5.0 mph 47% 0.00 in 0.00 W/m2
22:04 52.5 °F 33.9 °F 29.68 in ESE 3.0 mph 5.0 mph 49% 0.00 in 0.00 W/m2
22:09 52.1 °F 34.0 °F 29.68 in SE 4.0 mph 5.0 mph 50% 0.00 in 0.00 W/m2
22:14 52.0 °F 33.4 °F 29.68 in SE 5.0 mph 6.0 mph 49% 0.00 in 0.00 W/m2
22:19 52.1 °F 33.0 °F 29.68 in SE 5.0 mph 8.0 mph 48% 0.00 in 0.00 W/m2
22:24 52.4 °F 32.7 °F 29.67 in SE 5.0 mph 8.0 mph 47% 0.00 in 0.00 W/m2
22:29 52.6 °F 32.9 °F 29.67 in ESE 8.0 mph 9.0 mph 47% 0.00 in 0.00 W/m2
22:34 52.6 °F 32.9 °F 29.68 in SE 6.0 mph 9.0 mph 47% 0.00 in 0.00 W/m2
22:39 52.6 °F 32.9 °F 29.68 in SE 5.0 mph 8.0 mph 47% 0.00 in 0.00 W/m2
22:44 52.6 °F 32.9 °F 29.68 in SE 3.0 mph 8.0 mph 47% 0.00 in 0.00 W/m2
22:50 52.6 °F 32.9 °F 29.68 in ESE 8.0 mph 8.0 mph 47% 0.00 in 0.00 W/m2
22:54 52.6 °F 32.9 °F 29.68 in SSE 5.0 mph 8.0 mph 47% 0.00 in 0.00 W/m2
22:59 52.8 °F 32.6 °F 29.68 in SE 6.0 mph 8.0 mph 46% 0.00 in 0.00 W/m2
23:04 53.1 °F 32.3 °F 29.67 in SSE 3.0 mph 8.0 mph 45% 0.00 in 0.00 W/m2
23:09 53.9 °F 32.5 °F 29.67 in South 7.0 mph 11.0 mph 44% 0.00 in 0.00 W/m2
23:14 54.6 °F 32.5 °F 29.66 in SSE 4.0 mph 11.0 mph 43% 0.00 in 0.00 W/m2
23:19 54.5 °F 32.4 °F 29.66 in SE 5.0 mph 7.0 mph 43% 0.00 in 0.00 W/m2
23:24 54.2 °F 32.2 °F 29.66 in SE 6.0 mph 7.0 mph 43% 0.00 in 0.00 W/m2
23:29 53.7 °F 31.7 °F 29.66 in SSE 6.0 mph 9.0 mph 43% 0.00 in 0.00 W/m2
23:34 53.2 °F 31.8 °F 29.65 in SSE 8.0 mph 9.0 mph 44% 0.00 in 0.00 W/m2
23:39 52.9 °F 31.0 °F 29.64 in SSE 10.0 mph 10.0 mph 43% 0.00 in 0.00 W/m2
23:44 52.6 °F 31.3 °F 29.64 in SSE 8.0 mph 10.0 mph 44% 0.00 in 0.00 W/m2
23:49 52.2 °F 31.5 °F 29.64 in SSE 6.0 mph 10.0 mph 45% 0.00 in 0.00 W/m2
23:54 51.6 °F 31.5 °F 29.64 in SE 5.0 mph 9.0 mph 46% 0.00 in 0.00 W/m2
Bismarck, North Dakota, USA
Compliments of Weather Underground - 4 mb